sensor_id;sensor_type;location;lat;lon;timestamp;P1;durP1;ratioP1;P2;durP2;ratioP2
31978;SDS011;18502;43.574;1.276;2023-07-02T21:06:55;7.68;;;5.72;;
31978;SDS011;18502;43.574;1.276;2023-07-02T21:09:20;10.13;;;5.80;;
31978;SDS011;18502;43.574;1.276;2023-07-02T21:11:47;8.57;;;6.07;;
31978;SDS011;18502;43.574;1.276;2023-07-02T21:14:13;11.43;;;6.50;;
31978;SDS011;18502;43.574;1.276;2023-07-02T21:16:39;10.68;;;6.50;;
31978;SDS011;18502;43.574;1.276;2023-07-02T21:19:05;9.82;;;7.07;;
31978;SDS011;18502;43.574;1.276;2023-07-02T21:21:30;10.20;;;7.03;;
31978;SDS011;18502;43.574;1.276;2023-07-02T21:23:56;11.82;;;7.28;;
31978;SDS011;18502;43.574;1.276;2023-07-02T21:26:22;9.70;;;6.25;;
31978;SDS011;18502;43.574;1.276;2023-07-02T21:28:48;9.07;;;6.35;;
31978;SDS011;18502;43.574;1.276;2023-07-02T21:31:13;9.95;;;7.07;;
31978;SDS011;18502;43.574;1.276;2023-07-02T21:33:39;10.90;;;7.18;;
31978;SDS011;18502;43.574;1.276;2023-07-02T21:36:05;11.27;;;6.95;;
31978;SDS011;18502;43.574;1.276;2023-07-02T21:38:36;12.38;;;7.35;;
31978;SDS011;18502;43.574;1.276;2023-07-02T21:41:03;10.75;;;6.93;;
31978;SDS011;18502;43.574;1.276;2023-07-02T21:43:30;13.40;;;7.30;;
31978;SDS011;18502;43.574;1.276;2023-07-02T21:45:56;12.20;;;7.65;;
31978;SDS011;18502;43.574;1.276;2023-07-02T21:48:22;13.32;;;7.35;;
31978;SDS011;18502;43.574;1.276;2023-07-02T21:50:48;9.65;;;6.70;;
31978;SDS011;18502;43.574;1.276;2023-07-02T21:53:14;18.92;;;8.00;;
31978;SDS011;18502;43.574;1.276;2023-07-02T21:55:39;9.68;;;6.88;;
31978;SDS011;18502;43.574;1.276;2023-07-02T21:58:05;13.07;;;8.68;;
31978;SDS011;18502;43.574;1.276;2023-07-02T22:00:31;14.05;;;7.80;;
31978;SDS011;18502;43.574;1.276;2023-07-02T22:02:56;11.70;;;7.55;;
31978;SDS011;18502;43.574;1.276;2023-07-02T22:05:22;12.63;;;7.18;;
31978;SDS011;18502;43.574;1.276;2023-07-02T22:07:49;10.95;;;7.40;;
31978;SDS011;18502;43.574;1.276;2023-07-02T22:10:15;15.40;;;7.93;;
31978;SDS011;18502;43.574;1.276;2023-07-02T22:12:41;9.98;;;7.45;;
31978;SDS011;18502;43.574;1.276;2023-07-02T22:15:07;14.40;;;7.50;;
31978;SDS011;18502;43.574;1.276;2023-07-02T22:17:33;11.90;;;7.60;;
31978;SDS011;18502;43.574;1.276;2023-07-02T22:19:59;12.32;;;7.28;;
31978;SDS011;18502;43.574;1.276;2023-07-02T22:22:25;11.07;;;7.32;;
31978;SDS011;18502;43.574;1.276;2023-07-02T22:24:55;14.07;;;7.85;;
31978;SDS011;18502;43.574;1.276;2023-07-02T22:27:21;11.23;;;7.30;;
31978;SDS011;18502;43.574;1.276;2023-07-02T22:29:51;11.10;;;7.90;;
31978;SDS011;18502;43.574;1.276;2023-07-02T22:32:17;11.90;;;7.70;;
31978;SDS011;18502;43.574;1.276;2023-07-02T22:34:43;14.45;;;7.57;;
31978;SDS011;18502;43.574;1.276;2023-07-02T22:37:08;13.52;;;8.13;;
31978;SDS011;18502;43.574;1.276;2023-07-02T22:39:34;14.07;;;8.30;;
31978;SDS011;18502;43.574;1.276;2023-07-02T22:42:00;11.90;;;7.68;;
31978;SDS011;18502;43.574;1.276;2023-07-02T22:44:25;11.63;;;8.27;;
31978;SDS011;18502;43.574;1.276;2023-07-02T22:46:53;13.00;;;7.60;;
31978;SDS011;18502;43.574;1.276;2023-07-02T22:49:18;13.30;;;7.53;;
31978;SDS011;18502;43.574;1.276;2023-07-02T22:51:47;12.05;;;7.82;;
31978;SDS011;18502;43.574;1.276;2023-07-02T22:54:13;12.13;;;7.93;;
31978;SDS011;18502;43.574;1.276;2023-07-02T22:56:39;11.40;;;7.57;;
31978;SDS011;18502;43.574;1.276;2023-07-02T22:59:04;10.52;;;7.57;;
31978;SDS011;18502;43.574;1.276;2023-07-02T23:01:30;13.23;;;8.50;;
31978;SDS011;18502;43.574;1.276;2023-07-02T23:03:56;12.68;;;7.97;;
31978;SDS011;18502;43.574;1.276;2023-07-02T23:06:21;13.40;;;8.48;;
31978;SDS011;18502;43.574;1.276;2023-07-02T23:08:49;11.75;;;7.80;;
31978;SDS011;18502;43.574;1.276;2023-07-02T23:11:15;13.63;;;7.88;;
31978;SDS011;18502;43.574;1.276;2023-07-02T23:13:40;13.18;;;8.32;;
31978;SDS011;18502;43.574;1.276;2023-07-02T23:16:06;12.93;;;7.80;;
31978;SDS011;18502;43.574;1.276;2023-07-02T23:18:35;12.43;;;7.65;;
31978;SDS011;18502;43.574;1.276;2023-07-02T23:21:01;11.07;;;8.05;;
31978;SDS011;18502;43.574;1.276;2023-07-02T23:23:30;15.88;;;8.00;;
31978;SDS011;18502;43.574;1.276;2023-07-02T23:25:56;15.35;;;8.10;;
31978;SDS011;18502;43.574;1.276;2023-07-02T23:28:25;12.35;;;8.63;;
31978;SDS011;18502;43.574;1.276;2023-07-02T23:30:50;16.17;;;8.85;;
31978;SDS011;18502;43.574;1.276;2023-07-02T23:33:17;12.85;;;8.18;;
31978;SDS011;18502;43.574;1.276;2023-07-02T23:35:43;14.57;;;8.98;;
31978;SDS011;18502;43.574;1.276;2023-07-02T23:38:09;12.45;;;7.63;;
31978;SDS011;18502;43.574;1.276;2023-07-02T23:40:35;14.10;;;8.75;;
31978;SDS011;18502;43.574;1.276;2023-07-02T23:43:02;12.40;;;8.15;;
31978;SDS011;18502;43.574;1.276;2023-07-02T23:45:28;13.65;;;7.57;;
31978;SDS011;18502;43.574;1.276;2023-07-02T23:47:54;12.88;;;7.88;;
31978;SDS011;18502;43.574;1.276;2023-07-02T23:50:20;12.40;;;8.27;;
31978;SDS011;18502;43.574;1.276;2023-07-02T23:52:46;12.82;;;8.60;;
31978;SDS011;18502;43.574;1.276;2023-07-02T23:55:12;12.73;;;7.50;;
31978;SDS011;18502;43.574;1.276;2023-07-02T23:57:40;13.82;;;8.52;;
